createdAt,value
2017-11-18T00:00:06.720Z,4.67
2017-11-18T00:01:06.713Z,4.62
2017-11-18T00:02:06.704Z,4.71
2017-11-18T00:03:06.699Z,4.62
2017-11-18T00:04:06.692Z,4.75
2017-11-18T00:05:06.684Z,4.68
2017-11-18T00:06:06.675Z,4.77
2017-11-18T00:07:06.669Z,4.67
2017-11-18T00:08:06.661Z,4.66
2017-11-18T00:09:06.656Z,4.59
2017-11-18T00:10:06.649Z,4.58
2017-11-18T00:11:06.640Z,4.49
2017-11-18T00:12:06.633Z,4.55
2017-11-18T00:13:06.626Z,4.55
2017-11-18T00:14:06.617Z,4.52
2017-11-18T00:15:06.620Z,4.59
2017-11-18T00:16:06.608Z,4.63
2017-11-18T00:17:06.597Z,4.66
2017-11-18T00:18:06.590Z,4.60
2017-11-18T00:19:06.582Z,4.59
2017-11-18T00:20:06.576Z,4.63
2017-11-18T00:21:06.569Z,4.58
2017-11-18T00:22:06.562Z,4.55
2017-11-18T00:23:06.555Z,4.44
2017-11-18T00:24:06.547Z,4.42
2017-11-18T00:25:06.541Z,4.42
2017-11-18T00:26:06.532Z,4.53
2017-11-18T00:27:06.526Z,4.58
2017-11-18T00:28:06.519Z,4.58
2017-11-18T00:29:06.511Z,4.60
2017-11-18T00:30:06.504Z,4.55
2017-11-18T00:31:06.495Z,4.56
2017-11-18T00:32:06.489Z,4.62
2017-11-18T00:33:06.483Z,4.59
2017-11-18T00:34:06.475Z,4.60
2017-11-18T00:35:06.467Z,4.66
2017-11-18T00:36:06.458Z,4.63
2017-11-18T00:37:06.454Z,4.59
2017-11-18T00:38:06.445Z,4.55
2017-11-18T00:39:06.437Z,4.58
2017-11-18T00:40:06.431Z,4.55
2017-11-18T00:41:06.422Z,4.56
2017-11-18T00:42:06.414Z,4.52
2017-11-18T00:43:06.409Z,4.55
2017-11-18T00:44:06.401Z,4.59
2017-11-18T00:45:06.393Z,4.53
2017-11-18T00:46:06.386Z,4.58
2017-11-18T00:47:06.379Z,4.52
2017-11-18T00:48:06.371Z,4.55
2017-11-18T00:49:06.365Z,4.60
2017-11-18T00:50:06.357Z,4.71
2017-11-18T00:51:06.350Z,4.70
2017-11-18T00:52:06.342Z,4.75
2017-11-18T00:53:06.344Z,4.62
2017-11-18T00:54:06.327Z,4.67
2017-11-18T00:55:06.320Z,4.67
2017-11-18T00:56:06.313Z,4.70
2017-11-18T00:57:06.306Z,4.67
2017-11-18T00:58:06.302Z,4.73
2017-11-18T00:59:06.292Z,4.78
2017-11-18T01:00:06.286Z,4.77
2017-11-18T01:01:06.276Z,4.80
2017-11-18T01:02:06.269Z,4.73
2017-11-18T01:03:06.263Z,4.86
2017-11-18T01:04:06.255Z,4.80
2017-11-18T01:05:06.250Z,4.75
2017-11-18T01:06:06.241Z,4.67
2017-11-18T01:07:06.233Z,4.66
2017-11-18T01:08:06.228Z,4.73
2017-11-18T01:09:06.219Z,4.62
2017-11-18T01:10:06.211Z,4.78
2017-11-18T01:11:06.204Z,4.67
2017-11-18T01:12:06.197Z,4.73
2017-11-18T01:13:06.190Z,4.66
2017-11-18T01:14:06.181Z,4.66
2017-11-18T01:15:06.175Z,4.63
2017-11-18T01:16:06.170Z,4.73
2017-11-18T01:17:06.162Z,4.63
2017-11-18T01:18:06.154Z,4.66
2017-11-18T01:19:06.146Z,4.66
2017-11-18T01:20:06.141Z,4.68
2017-11-18T01:21:06.135Z,4.63
2017-11-18T01:22:06.125Z,4.66
2017-11-18T01:23:06.126Z,4.67
2017-11-18T01:24:06.113Z,4.74
2017-11-18T01:25:06.105Z,4.71
2017-11-18T01:26:06.098Z,4.70
2017-11-18T01:27:06.089Z,4.75
2017-11-18T01:28:06.086Z,4.60
2017-11-18T01:29:06.078Z,4.77
2017-11-18T01:30:06.074Z,4.60
2017-11-18T01:31:06.062Z,4.82
2017-11-18T01:32:06.058Z,4.63
2017-11-18T01:33:06.049Z,4.73
2017-11-18T01:34:06.041Z,4.73
2017-11-18T01:35:06.039Z,4.68
2017-11-18T01:36:06.028Z,4.84
2017-11-18T01:37:06.022Z,4.80
2017-11-18T01:38:06.014Z,4.77
2017-11-18T01:39:06.013Z,4.77
2017-11-18T01:40:06.000Z,4.71
2017-11-18T01:41:05.994Z,4.68
2017-11-18T01:42:05.986Z,4.70
2017-11-18T01:43:05.981Z,4.75
2017-11-18T01:44:05.973Z,4.74
2017-11-18T01:45:05.966Z,4.80
2017-11-18T01:46:05.957Z,4.66
2017-11-18T01:47:05.950Z,4.60
2017-11-18T01:48:05.944Z,4.70
2017-11-18T01:49:05.938Z,4.67
2017-11-18T01:50:05.929Z,4.71
2017-11-18T01:51:05.926Z,4.66
2017-11-18T01:52:05.917Z,4.66
2017-11-18T01:53:05.910Z,4.66
2017-11-18T01:54:05.902Z,4.66
2017-11-18T01:55:05.895Z,4.63
2017-11-18T01:56:05.889Z,4.78
2017-11-18T01:57:05.885Z,4.74
2017-11-18T01:58:05.877Z,4.62
2017-11-18T01:59:05.867Z,4.67
2017-11-18T02:00:05.861Z,4.73
2017-11-18T02:01:05.855Z,4.71
2017-11-18T02:02:05.848Z,4.71
2017-11-18T02:03:05.845Z,4.73
2017-11-18T02:04:05.833Z,4.68
2017-11-18T02:05:05.826Z,4.78
2017-11-18T02:06:05.818Z,4.71
2017-11-18T02:07:05.812Z,4.70
2017-11-18T02:08:05.805Z,4.75
2017-11-18T02:09:05.799Z,4.78
2017-11-18T02:10:05.791Z,4.74
2017-11-18T02:11:05.784Z,4.78
2017-11-18T02:12:05.778Z,4.82
2017-11-18T02:13:05.773Z,4.78
2017-11-18T02:14:05.763Z,4.77
2017-11-18T02:15:05.757Z,4.86
2017-11-18T02:16:05.750Z,4.84
2017-11-18T02:17:05.744Z,4.87
2017-11-18T02:18:05.737Z,4.96
2017-11-18T02:19:05.728Z,5.04
2017-11-18T02:20:05.723Z,5.04
2017-11-18T02:21:05.717Z,5.07
2017-11-18T02:22:05.709Z,5.10
2017-11-18T02:23:05.707Z,5.10
2017-11-18T02:24:05.700Z,5.08
2017-11-18T02:25:05.700Z,5.11
2017-11-18T02:26:05.680Z,5.14
2017-11-18T02:27:05.674Z,5.17
2017-11-18T02:28:05.666Z,5.17
2017-11-18T02:29:05.660Z,5.17
2017-11-18T02:30:05.656Z,5.12
2017-11-18T02:31:05.645Z,5.18
2017-11-18T02:32:05.642Z,5.08
2017-11-18T02:33:05.636Z,5.12
2017-11-18T02:34:05.627Z,5.08
2017-11-18T02:35:05.619Z,5.10
2017-11-18T02:36:05.613Z,5.12
2017-11-18T02:37:05.611Z,5.11
2017-11-18T02:38:05.598Z,5.12
2017-11-18T02:39:05.592Z,5.11
2017-11-18T02:40:05.583Z,5.11
2017-11-18T02:41:05.577Z,5.14
2017-11-18T02:42:05.572Z,5.08
2017-11-18T02:43:05.564Z,5.18
2017-11-18T02:44:05.558Z,5.20
2017-11-18T02:45:05.550Z,5.17
2017-11-18T02:46:05.550Z,5.18
2017-11-18T02:47:05.535Z,5.20
2017-11-18T02:48:05.537Z,5.18
2017-11-18T02:49:05.524Z,5.23
2017-11-18T02:50:05.514Z,5.28
2017-11-18T02:51:05.507Z,5.26
2017-11-18T02:52:05.502Z,5.33
2017-11-18T02:53:05.497Z,5.33
2017-11-18T02:54:05.489Z,5.35
2017-11-18T02:55:05.480Z,5.29
2017-11-18T02:56:05.483Z,5.33
2017-11-18T02:57:05.467Z,5.43
2017-11-18T02:58:05.460Z,5.38
2017-11-18T02:59:05.453Z,5.44
2017-11-18T03:00:05.447Z,5.43
2017-11-18T03:01:05.439Z,5.33
2017-11-18T03:02:05.433Z,5.33
2017-11-18T03:03:05.427Z,5.36
2017-11-18T03:04:05.420Z,5.44
2017-11-18T03:05:05.413Z,5.47
2017-11-18T03:06:05.406Z,5.43
2017-11-18T03:07:05.399Z,5.43
2017-11-18T03:08:05.393Z,5.43
2017-11-18T03:09:05.386Z,5.46
2017-11-18T03:10:05.378Z,5.46
2017-11-18T03:11:05.371Z,5.39
2017-11-18T03:12:05.366Z,5.43
2017-11-18T03:13:05.358Z,5.43
2017-11-18T03:14:05.351Z,5.41
2017-11-18T03:15:05.345Z,5.41
2017-11-18T03:16:05.341Z,5.36
2017-11-18T03:17:05.332Z,5.41
2017-11-18T03:18:05.328Z,5.41
2017-11-18T03:19:05.317Z,5.38
2017-11-18T03:20:05.310Z,5.39
2017-11-18T03:21:05.303Z,5.47
2017-11-18T03:22:05.296Z,5.35
2017-11-18T03:23:05.289Z,5.39
2017-11-18T03:24:05.283Z,5.38
2017-11-18T03:25:05.276Z,5.35
2017-11-18T03:26:05.270Z,5.47
2017-11-18T03:27:05.263Z,5.38
2017-11-18T03:28:05.256Z,5.46
2017-11-18T03:29:05.249Z,5.33
2017-11-18T03:30:05.243Z,5.35
2017-11-18T03:31:05.238Z,5.39
2017-11-18T03:32:05.230Z,5.36
2017-11-18T03:33:05.224Z,5.41
2017-11-18T03:34:05.216Z,5.38
2017-11-18T03:35:05.215Z,5.36
2017-11-18T03:36:05.201Z,5.29
2017-11-18T03:37:05.196Z,5.29
2017-11-18T03:38:05.189Z,5.30
2017-11-18T03:39:05.183Z,5.41
2017-11-18T03:40:05.177Z,5.43
2017-11-18T03:41:05.169Z,5.36
2017-11-18T03:42:05.161Z,5.38
2017-11-18T03:43:05.155Z,5.33
2017-11-18T03:44:05.149Z,5.36
2017-11-18T03:45:05.143Z,5.38
2017-11-18T03:46:05.136Z,5.30
2017-11-18T03:47:05.131Z,5.35
2017-11-18T03:48:05.121Z,5.38
2017-11-18T03:49:05.116Z,5.38
2017-11-18T03:50:05.116Z,5.44
2017-11-18T03:51:05.102Z,5.33
2017-11-18T03:52:05.095Z,5.36
2017-11-18T03:53:05.090Z,5.25
2017-11-18T03:54:05.081Z,5.29
2017-11-18T03:55:05.075Z,5.39
2017-11-18T03:56:05.069Z,5.43
2017-11-18T03:57:05.063Z,5.26
2017-11-18T03:58:05.057Z,5.41
2017-11-18T03:59:05.049Z,5.41
2017-11-18T04:00:05.052Z,5.43
2017-11-18T04:01:05.035Z,5.36
2017-11-18T04:02:05.028Z,5.35
2017-11-18T04:03:05.023Z,5.41
2017-11-18T04:04:05.017Z,5.30
2017-11-18T04:05:05.010Z,5.38
2017-11-18T04:06:05.003Z,5.32
2017-11-18T04:07:04.996Z,5.41
2017-11-18T04:08:04.990Z,5.38
2017-11-18T04:09:04.984Z,5.32
2017-11-18T04:10:04.976Z,5.35
2017-11-18T04:11:04.978Z,5.32
2017-11-18T04:12:04.963Z,5.38
2017-11-18T04:13:04.956Z,5.39
2017-11-18T04:14:04.950Z,5.35
2017-11-18T04:15:04.944Z,5.35
2017-11-18T04:16:04.936Z,5.35
2017-11-18T04:17:04.931Z,5.39
2017-11-18T04:18:04.923Z,5.35
2017-11-18T04:19:04.917Z,5.36
2017-11-18T04:20:04.909Z,5.39
2017-11-18T04:21:04.904Z,5.35
2017-11-18T04:22:04.895Z,5.35
2017-11-18T04:23:04.894Z,5.36
2017-11-18T04:24:04.883Z,5.39
2017-11-18T04:25:04.877Z,5.36
2017-11-18T04:26:04.874Z,5.38
2017-11-18T04:27:04.864Z,5.35
2017-11-18T04:28:04.857Z,5.39
2017-11-18T04:29:04.860Z,5.32
2017-11-18T04:30:04.843Z,5.33
2017-11-18T04:31:04.837Z,5.35
2017-11-18T04:32:04.832Z,5.33
2017-11-18T04:33:04.825Z,5.28
2017-11-18T04:34:04.817Z,5.30
2017-11-18T04:35:04.810Z,5.38
2017-11-18T04:36:04.804Z,5.33
2017-11-18T04:37:04.797Z,5.36
2017-11-18T04:38:04.792Z,5.46
2017-11-18T04:39:04.783Z,5.39
2017-11-18T04:40:04.781Z,5.44
2017-11-18T04:41:04.771Z,5.30
2017-11-18T04:42:04.762Z,5.41
2017-11-18T04:43:04.757Z,5.39
2017-11-18T04:44:04.751Z,5.33
2017-11-18T04:45:04.743Z,5.29
2017-11-18T04:46:04.736Z,5.35
2017-11-18T04:47:04.738Z,5.32
2017-11-18T04:48:04.724Z,5.33
2017-11-18T04:49:04.717Z,5.39
2017-11-18T04:50:04.711Z,5.30
2017-11-18T04:51:04.714Z,5.39
2017-11-18T04:52:04.696Z,5.39
2017-11-18T04:53:04.692Z,5.43
2017-11-18T04:54:04.692Z,5.38
2017-11-18T04:55:04.677Z,5.32
2017-11-18T04:56:04.671Z,5.35
2017-11-18T04:57:04.664Z,5.29
2017-11-18T04:58:04.656Z,5.29
2017-11-18T04:59:04.650Z,5.29
2017-11-18T05:00:04.644Z,5.41
2017-11-18T05:01:04.638Z,5.41
2017-11-18T05:02:04.631Z,5.36
2017-11-18T05:03:04.624Z,5.44
2017-11-18T05:04:04.617Z,5.38
2017-11-18T05:05:04.612Z,5.39
2017-11-18T05:06:04.603Z,5.35
2017-11-18T05:07:04.597Z,5.43
2017-11-18T05:08:04.606Z,5.39
2017-11-18T05:09:04.585Z,5.33
2017-11-18T05:10:04.577Z,5.39
2017-11-18T05:11:04.579Z,5.41
2017-11-18T05:12:04.565Z,5.38
2017-11-18T05:13:04.557Z,5.35
2017-11-18T05:14:04.550Z,5.35
2017-11-18T05:15:04.546Z,5.44
2017-11-18T05:16:04.538Z,5.44
2017-11-18T05:17:04.531Z,5.47
2017-11-18T05:18:04.524Z,5.44
2017-11-18T05:19:04.517Z,5.41
2017-11-18T05:20:04.511Z,5.41
2017-11-18T05:21:04.504Z,5.44
2017-11-18T05:22:04.498Z,5.44
2017-11-18T05:23:04.491Z,5.43
2017-11-18T05:24:04.483Z,5.44
2017-11-18T05:25:04.479Z,5.53
2017-11-18T05:26:04.471Z,5.43
2017-11-18T05:27:04.464Z,5.44
2017-11-18T05:28:04.457Z,5.47
2017-11-18T05:29:04.451Z,5.44
2017-11-18T05:30:04.441Z,5.48
2017-11-18T05:31:04.438Z,5.47
2017-11-18T05:32:04.430Z,5.47
2017-11-18T05:33:04.427Z,5.48
2017-11-18T05:34:04.416Z,5.43
2017-11-18T05:35:04.410Z,5.46
2017-11-18T05:36:04.404Z,5.46
2017-11-18T05:37:04.398Z,5.47
2017-11-18T05:38:04.388Z,5.48
2017-11-18T05:39:04.383Z,5.41
2017-11-18T05:40:04.385Z,5.48
2017-11-18T05:41:04.370Z,5.48
2017-11-18T05:42:04.363Z,5.41
2017-11-18T05:43:04.357Z,5.44
2017-11-18T05:44:04.350Z,5.46
2017-11-18T05:45:04.344Z,5.48
2017-11-18T05:46:04.337Z,5.43
2017-11-18T05:47:04.328Z,5.44
2017-11-18T05:48:04.323Z,5.48
2017-11-18T05:49:04.316Z,5.53
2017-11-18T05:50:04.311Z,5.46
2017-11-18T05:51:04.303Z,5.41
2017-11-18T05:52:04.295Z,5.47
2017-11-18T05:53:04.289Z,5.47
2017-11-18T05:54:04.284Z,5.54
2017-11-18T05:55:04.276Z,5.47
2017-11-18T05:56:04.269Z,5.51
2017-11-18T05:57:04.262Z,5.46
2017-11-18T05:58:04.255Z,5.51
2017-11-18T05:59:04.248Z,5.50
2017-11-18T06:00:04.244Z,5.50
2017-11-18T06:01:04.235Z,5.57
2017-11-18T06:02:04.229Z,5.56
2017-11-18T06:03:04.221Z,5.53
2017-11-18T06:04:04.216Z,5.56
2017-11-18T06:05:04.215Z,5.56
2017-11-18T06:06:04.202Z,5.54
2017-11-18T06:07:04.195Z,5.64
2017-11-18T06:08:04.188Z,5.62
2017-11-18T06:09:04.182Z,5.53
2017-11-18T06:10:04.174Z,5.53
2017-11-18T06:11:04.168Z,5.57
2017-11-18T06:12:04.162Z,5.56
2017-11-18T06:13:04.154Z,5.53
2017-11-18T06:14:04.147Z,5.61
2017-11-18T06:15:04.141Z,5.54
2017-11-18T06:16:04.134Z,5.61
2017-11-18T06:17:04.135Z,5.54
2017-11-18T06:18:04.120Z,5.68
2017-11-18T06:19:04.118Z,5.62
2017-11-18T06:20:04.107Z,5.57
2017-11-18T06:21:04.102Z,5.57
2017-11-18T06:22:04.092Z,5.65
2017-11-18T06:23:04.087Z,5.57
2017-11-18T06:24:04.081Z,5.64
2017-11-18T06:25:04.075Z,5.57
2017-11-18T06:26:04.066Z,5.64
2017-11-18T06:27:04.062Z,5.64
2017-11-18T06:28:04.052Z,5.61
2017-11-18T06:29:04.047Z,5.62
2017-11-18T06:30:04.040Z,5.65
2017-11-18T06:31:04.033Z,5.64
2017-11-18T06:32:04.025Z,5.64
2017-11-18T06:33:04.019Z,5.64
2017-11-18T06:34:04.012Z,5.64
2017-11-18T06:35:04.006Z,5.62
2017-11-18T06:36:04.000Z,5.62
2017-11-18T06:37:03.993Z,5.66
2017-11-18T06:38:03.984Z,5.61
2017-11-18T06:39:03.977Z,5.66
2017-11-18T06:40:03.972Z,5.65
2017-11-18T06:41:03.966Z,5.56
2017-11-18T06:42:03.958Z,5.64
2017-11-18T06:43:03.952Z,5.57
2017-11-18T06:44:03.945Z,5.65
2017-11-18T06:45:03.939Z,5.59
2017-11-18T06:46:03.937Z,5.62
2017-11-18T06:47:03.926Z,5.62
2017-11-18T06:48:03.919Z,5.53
2017-11-18T06:49:03.912Z,5.59
2017-11-18T06:50:03.905Z,5.65
2017-11-18T06:51:03.898Z,5.51
2017-11-18T06:52:03.890Z,5.56
2017-11-18T06:53:03.884Z,5.54
2017-11-18T06:54:03.878Z,5.54
2017-11-18T06:55:03.871Z,5.62
2017-11-18T06:56:03.865Z,5.54
2017-11-18T06:57:03.859Z,5.66
2017-11-18T06:58:03.850Z,5.62
2017-11-18T06:59:03.846Z,5.64
2017-11-18T07:00:03.841Z,5.61
2017-11-18T07:01:03.830Z,5.64
2017-11-18T07:02:03.824Z,5.65
2017-11-18T07:03:03.817Z,5.62
2017-11-18T07:04:03.810Z,5.66
2017-11-18T07:05:03.804Z,5.57
2017-11-18T07:06:03.796Z,5.62
2017-11-18T07:07:03.790Z,5.66
2017-11-18T07:08:03.784Z,5.57
2017-11-18T07:09:03.777Z,5.69
2017-11-18T07:10:03.770Z,5.65
2017-11-18T07:11:03.764Z,5.66
2017-11-18T07:12:03.756Z,5.71
2017-11-18T07:13:03.750Z,5.66
2017-11-18T07:14:03.743Z,5.62
2017-11-18T07:15:03.739Z,5.66
2017-11-18T07:16:03.731Z,5.71
2017-11-18T07:17:03.724Z,5.71
2017-11-18T07:18:03.716Z,5.68
2017-11-18T07:19:03.717Z,5.76
2017-11-18T07:20:03.703Z,5.71
2017-11-18T07:21:03.696Z,5.68
2017-11-18T07:22:03.689Z,5.68
2017-11-18T07:23:03.683Z,5.73
2017-11-18T07:24:03.676Z,5.79
2017-11-18T07:25:03.672Z,5.76
2017-11-18T07:26:03.662Z,5.80
2017-11-18T07:27:03.655Z,5.82
2017-11-18T07:28:03.650Z,5.82
2017-11-18T07:29:03.641Z,5.76
2017-11-18T07:30:03.637Z,5.76
2017-11-18T07:31:03.629Z,5.75
2017-11-18T07:32:03.623Z,5.76
2017-11-18T07:33:03.616Z,5.72
2017-11-18T07:34:03.609Z,5.72
2017-11-18T07:35:03.601Z,5.73
2017-11-18T07:36:03.596Z,5.79
2017-11-18T07:37:03.589Z,5.80
2017-11-18T07:38:03.582Z,5.76
2017-11-18T07:39:03.574Z,5.64
2017-11-18T07:40:03.569Z,5.73
2017-11-18T07:41:03.569Z,5.75
2017-11-18T07:42:03.553Z,5.76
2017-11-18T07:43:03.549Z,5.75
2017-11-18T07:44:03.548Z,5.73
2017-11-18T07:45:03.536Z,5.79
2017-11-18T07:46:03.531Z,5.79
2017-11-18T07:47:03.521Z,5.76
2017-11-18T07:48:03.516Z,5.80
2017-11-18T07:49:03.512Z,5.79
2017-11-18T07:50:03.502Z,5.79
2017-11-18T07:51:03.495Z,5.76
2017-11-18T07:52:03.489Z,5.79
2017-11-18T07:53:03.483Z,5.73
2017-11-18T07:54:03.474Z,5.75
2017-11-18T07:55:03.469Z,5.79
2017-11-18T07:56:03.462Z,5.80
2017-11-18T07:57:03.456Z,5.76
2017-11-18T07:58:03.449Z,5.84
2017-11-18T07:59:03.442Z,5.79
2017-11-18T08:00:03.437Z,5.82
2017-11-18T08:01:03.429Z,5.73
2017-11-18T08:02:03.422Z,5.82
2017-11-18T08:03:03.416Z,5.80
2017-11-18T08:04:03.409Z,5.80
2017-11-18T08:05:03.402Z,5.82
2017-11-18T08:06:03.395Z,5.76
2017-11-18T08:07:03.390Z,5.79
2017-11-18T08:08:03.387Z,5.82
2017-11-18T08:09:03.376Z,5.80
2017-11-18T08:10:03.377Z,5.80
2017-11-18T08:11:03.362Z,5.83
2017-11-18T08:12:03.356Z,5.80
2017-11-18T08:13:03.350Z,5.82
2017-11-18T08:14:03.342Z,5.86
2017-11-18T08:15:03.336Z,5.83
2017-11-18T08:16:03.330Z,5.84
2017-11-18T08:17:03.324Z,5.82
2017-11-18T08:18:03.316Z,5.79
2017-11-18T08:19:03.309Z,5.83
2017-11-18T08:20:03.302Z,5.86
2017-11-18T08:21:03.296Z,5.86
2017-11-18T08:22:03.289Z,5.86
2017-11-18T08:23:03.282Z,5.86
2017-11-18T08:24:03.277Z,5.98
2017-11-18T08:25:03.271Z,5.86
2017-11-18T08:26:03.262Z,5.83
2017-11-18T08:27:03.256Z,5.90
2017-11-18T08:28:03.250Z,5.99
2017-11-18T08:29:03.244Z,5.97
2017-11-18T08:30:03.236Z,5.97
2017-11-18T08:31:03.230Z,6.02
2017-11-18T08:32:03.224Z,6.04
2017-11-18T08:33:03.223Z,5.98
2017-11-18T08:34:03.209Z,5.97
2017-11-18T08:35:03.202Z,6.04
2017-11-18T08:36:03.198Z,6.04
2017-11-18T08:37:03.190Z,6.05
2017-11-18T08:38:03.184Z,6.12
2017-11-18T08:39:03.177Z,6.16
2017-11-18T08:40:03.170Z,6.16
2017-11-18T08:41:03.166Z,6.09
2017-11-18T08:42:03.157Z,6.22
2017-11-18T08:43:03.151Z,6.09
2017-11-18T08:44:03.144Z,6.28
2017-11-18T08:45:03.139Z,6.20
2017-11-18T08:46:03.129Z,6.28
2017-11-18T08:47:03.131Z,6.27
2017-11-18T08:48:03.118Z,6.27
2017-11-18T08:49:03.112Z,6.36
2017-11-18T08:50:03.104Z,6.33
2017-11-18T08:51:03.102Z,6.24
2017-11-18T08:52:03.092Z,6.31
2017-11-18T08:53:03.085Z,6.36
2017-11-18T08:54:03.079Z,6.35
2017-11-18T08:55:03.072Z,6.45
2017-11-18T08:56:03.065Z,6.48
2017-11-18T08:57:03.060Z,6.39
2017-11-18T08:58:03.053Z,6.33
2017-11-18T08:59:03.046Z,6.48
2017-11-18T09:00:03.046Z,6.54
2017-11-18T09:01:03.034Z,6.54
2017-11-18T09:02:03.028Z,6.52
2017-11-18T09:03:03.022Z,6.54
2017-11-18T09:04:03.014Z,6.54
2017-11-18T09:05:03.012Z,6.60
2017-11-18T09:06:03.000Z,6.59
2017-11-18T09:07:02.995Z,6.52
2017-11-18T09:08:02.990Z,6.59
2017-11-18T09:09:02.983Z,6.63
2017-11-18T09:10:02.978Z,6.62
2017-11-18T09:11:02.970Z,6.62
2017-11-18T09:12:02.965Z,6.56
2017-11-18T09:13:02.965Z,6.60
2017-11-18T09:14:02.953Z,6.54
2017-11-18T09:15:02.947Z,6.60
2017-11-18T09:16:02.939Z,6.56
2017-11-18T09:17:02.934Z,6.60
2017-11-18T09:18:02.927Z,6.56
2017-11-18T09:19:02.920Z,6.60
2017-11-18T09:20:02.917Z,6.62
2017-11-18T09:21:02.913Z,6.54
2017-11-18T09:22:02.901Z,6.59
2017-11-18T09:23:02.896Z,6.63
2017-11-18T09:24:02.889Z,6.60
2017-11-18T09:25:02.884Z,6.59
2017-11-18T09:26:02.879Z,6.52
2017-11-18T09:27:02.871Z,6.54
2017-11-18T09:28:02.868Z,6.56
2017-11-18T09:29:02.858Z,6.54
2017-11-18T09:30:02.872Z,6.57
2017-11-18T09:31:02.846Z,6.59
2017-11-18T09:32:02.840Z,6.54
2017-11-18T09:33:02.835Z,6.74
2017-11-18T09:34:02.828Z,6.67
2017-11-18T09:35:02.823Z,6.64
2017-11-18T09:36:02.815Z,6.74
2017-11-18T09:37:02.810Z,6.64
2017-11-18T09:38:02.805Z,6.66
2017-11-18T09:39:02.798Z,6.64
2017-11-18T09:40:02.794Z,6.69
2017-11-18T09:41:02.786Z,6.72
2017-11-18T09:42:02.779Z,6.62
2017-11-18T09:43:02.778Z,6.69
2017-11-18T09:44:02.767Z,6.69
2017-11-18T09:45:02.762Z,6.78
2017-11-18T09:46:02.762Z,6.84
2017-11-18T09:47:02.748Z,6.72
2017-11-18T09:48:02.747Z,6.70
2017-11-18T09:49:02.739Z,6.69
2017-11-18T09:50:02.732Z,6.81
2017-11-18T09:51:02.725Z,6.74
2017-11-18T09:52:02.719Z,6.77
2017-11-18T09:53:02.717Z,6.78
2017-11-18T09:54:02.706Z,6.77
2017-11-18T09:55:02.701Z,6.81
2017-11-18T09:56:02.695Z,6.84
2017-11-18T09:57:02.689Z,6.88
2017-11-18T09:58:02.683Z,6.87
2017-11-18T09:59:02.677Z,6.87
2017-11-18T10:00:02.680Z,6.87
2017-11-18T10:01:02.666Z,6.88
2017-11-18T10:02:02.657Z,6.92
2017-11-18T10:03:02.651Z,7.00
2017-11-18T10:04:02.647Z,7.05
2017-11-18T10:05:02.647Z,6.97
2017-11-18T10:06:02.635Z,7.06
2017-11-18T10:07:02.629Z,6.92
2017-11-18T10:08:02.624Z,6.92
2017-11-18T10:09:02.619Z,6.87
2017-11-18T10:10:02.612Z,7.00
2017-11-18T10:11:02.607Z,6.89
2017-11-18T10:12:02.602Z,6.92
2017-11-18T10:13:02.595Z,7.05
2017-11-18T10:14:02.588Z,7.15
2017-11-18T10:15:02.583Z,7.17
2017-11-18T10:16:02.577Z,7.14
2017-11-18T10:17:02.570Z,7.23
2017-11-18T10:18:02.565Z,7.23
2017-11-18T10:19:02.559Z,7.23
2017-11-18T10:20:02.553Z,7.25
2017-11-18T10:21:02.551Z,7.21
2017-11-18T10:22:02.543Z,7.28
2017-11-18T10:23:02.536Z,7.18
2017-11-18T10:24:02.532Z,7.18
2017-11-18T10:25:02.526Z,7.32
2017-11-18T10:26:02.525Z,7.24
2017-11-18T10:27:02.514Z,7.20
2017-11-18T10:28:02.513Z,8.00
2017-11-18T10:29:02.504Z,8.01
2017-11-18T10:30:02.496Z,8.42
2017-11-18T10:31:02.491Z,7.98
2017-11-18T10:32:02.486Z,7.56
2017-11-18T10:33:02.482Z,7.50
2017-11-18T10:34:02.476Z,7.39
2017-11-18T10:35:02.475Z,7.39
2017-11-18T10:36:02.466Z,7.40
2017-11-18T10:37:02.462Z,7.36
2017-11-18T10:38:02.455Z,7.40
2017-11-18T10:39:02.450Z,7.39
2017-11-18T10:40:02.445Z,7.38
2017-11-18T10:41:02.439Z,7.42
2017-11-18T10:42:02.434Z,7.47
2017-11-18T10:43:02.430Z,7.53
2017-11-18T10:44:02.423Z,7.53
2017-11-18T10:45:02.418Z,7.60
2017-11-18T10:46:02.414Z,7.45
2017-11-18T10:47:02.407Z,7.54
2017-11-18T10:48:02.408Z,7.61
2017-11-18T10:49:02.398Z,7.58
2017-11-18T10:50:02.393Z,7.57
2017-11-18T10:51:02.388Z,7.58
2017-11-18T10:52:02.382Z,7.72
2017-11-18T10:53:02.377Z,7.75
2017-11-18T10:54:02.373Z,7.75
2017-11-18T10:55:02.378Z,7.77
2017-11-18T10:56:02.359Z,7.58
2017-11-18T10:57:02.357Z,7.57
2017-11-18T10:58:02.349Z,7.58
2017-11-18T10:59:02.345Z,7.47
2017-11-18T11:00:02.341Z,7.53
2017-11-18T11:01:02.336Z,7.57
2017-11-18T11:02:02.331Z,7.61
2017-11-18T11:03:02.324Z,7.58
2017-11-18T11:04:02.321Z,7.56
2017-11-18T11:05:02.318Z,7.58
2017-11-18T11:06:02.309Z,7.57
2017-11-18T11:07:02.302Z,7.67
2017-11-18T11:08:02.298Z,7.70
2017-11-18T11:09:02.293Z,7.67
2017-11-18T11:10:02.287Z,7.72
2017-11-18T11:11:02.284Z,7.61
2017-11-18T11:12:02.279Z,7.61
2017-11-18T11:13:02.275Z,7.58
2017-11-18T11:14:02.268Z,7.70
2017-11-18T11:15:02.262Z,7.75
2017-11-18T11:16:02.256Z,7.69
2017-11-18T11:17:02.253Z,7.82
2017-11-18T11:18:02.246Z,7.83
2017-11-18T11:19:02.250Z,7.82
2017-11-18T11:20:02.236Z,7.80
2017-11-18T11:21:02.231Z,7.82
2017-11-18T11:22:02.225Z,7.77
2017-11-18T11:23:02.221Z,7.72
2017-11-18T11:24:02.217Z,7.57
2017-11-18T11:25:02.223Z,7.63
2017-11-18T11:26:02.206Z,7.53
2017-11-18T11:27:02.200Z,7.60
2017-11-18T11:28:02.195Z,7.60
2017-11-18T11:29:02.190Z,7.58
2017-11-18T11:30:02.184Z,7.63
2017-11-18T11:31:02.180Z,7.70
2017-11-18T11:32:02.178Z,7.50
2017-11-18T11:33:02.168Z,7.45
2017-11-18T11:34:02.164Z,7.75
2017-11-18T11:35:02.159Z,8.19
2017-11-18T11:36:02.160Z,8.19
2017-11-18T11:37:02.150Z,8.20
2017-11-18T11:38:02.146Z,8.27
2017-11-18T11:39:02.139Z,8.20
2017-11-18T11:40:02.141Z,8.26
2017-11-18T11:41:02.127Z,8.05
2017-11-18T11:42:02.123Z,8.20
2017-11-18T11:43:02.118Z,8.24
2017-11-18T11:44:02.120Z,8.24
2017-11-18T11:45:02.109Z,8.28
2017-11-18T11:46:02.103Z,8.23
2017-11-18T11:47:02.103Z,8.19
2017-11-18T11:48:02.093Z,8.33
2017-11-18T11:49:02.089Z,8.26
2017-11-18T11:50:02.085Z,8.19
2017-11-18T11:51:02.078Z,8.16
2017-11-18T11:52:02.073Z,8.27
2017-11-18T11:53:02.068Z,8.28
2017-11-18T11:54:02.065Z,8.20
2017-11-18T11:55:02.059Z,8.24
2017-11-18T11:56:02.054Z,8.19
2017-11-18T11:57:02.050Z,8.05
2017-11-18T11:58:02.044Z,8.18
2017-11-18T11:59:02.038Z,8.05
2017-11-18T12:00:02.033Z,8.08
2017-11-18T12:01:02.030Z,8.08
2017-11-18T12:02:02.023Z,8.06
2017-11-18T12:03:02.019Z,7.88
2017-11-18T12:04:02.016Z,7.94
2017-11-18T12:05:02.015Z,7.98
2017-11-18T12:06:02.004Z,7.91
2017-11-18T12:07:02.000Z,7.82
2017-11-18T12:08:01.996Z,7.79
2017-11-18T12:09:01.990Z,7.94
2017-11-18T12:10:01.984Z,7.80
2017-11-18T12:11:01.979Z,7.77
2017-11-18T12:12:01.975Z,7.91
2017-11-18T12:13:01.970Z,7.79
2017-11-18T12:14:01.964Z,7.85
2017-11-18T12:15:01.969Z,7.73
2017-11-18T12:16:01.955Z,7.79
2017-11-18T12:17:01.950Z,7.67
2017-11-18T12:18:01.944Z,7.77
2017-11-18T12:19:01.939Z,7.70
2017-11-18T12:20:01.934Z,7.69
2017-11-18T12:21:01.930Z,7.79
2017-11-18T12:22:01.924Z,7.76
2017-11-18T12:23:01.919Z,7.76
2017-11-18T12:24:01.914Z,7.56
2017-11-18T12:25:01.910Z,7.72
2017-11-18T12:26:01.904Z,7.60
2017-11-18T12:27:01.898Z,7.63
2017-11-18T12:28:01.897Z,7.60
2017-11-18T12:29:01.889Z,7.58
2017-11-18T12:30:01.882Z,7.60
2017-11-18T12:31:01.878Z,7.54
2017-11-18T12:32:01.872Z,7.50
2017-11-18T12:33:01.868Z,7.48
2017-11-18T12:34:01.866Z,7.56
2017-11-18T12:35:01.856Z,7.54
2017-11-18T12:36:01.852Z,7.48
2017-11-18T12:37:01.847Z,7.39
2017-11-18T12:38:01.840Z,7.51
2017-11-18T12:39:01.836Z,7.42
2017-11-18T12:40:01.829Z,7.57
2017-11-18T12:41:01.824Z,7.40
2017-11-18T12:42:01.818Z,7.56
2017-11-18T12:43:01.812Z,7.47
2017-11-18T12:44:01.808Z,7.45
2017-11-18T12:45:01.833Z,7.57
2017-11-18T12:46:01.796Z,7.56
2017-11-18T12:47:01.792Z,7.57
2017-11-18T12:48:01.786Z,7.58
2017-11-18T12:49:01.786Z,7.63
2017-11-18T12:50:01.775Z,7.57
2017-11-18T12:51:01.770Z,7.47
2017-11-18T12:52:01.765Z,7.47
2017-11-18T12:53:01.760Z,7.45
2017-11-18T12:54:01.762Z,7.31
2017-11-18T12:55:01.748Z,7.23
2017-11-18T12:56:01.744Z,7.20
2017-11-18T12:57:01.738Z,7.24
2017-11-18T12:58:01.731Z,7.17
2017-11-18T12:59:01.727Z,7.15
2017-11-18T13:00:01.722Z,7.20
2017-11-18T13:01:01.716Z,7.11
2017-11-18T13:02:01.711Z,7.10
2017-11-18T13:03:01.706Z,7.05
2017-11-18T13:04:01.700Z,6.92
2017-11-18T13:05:01.696Z,6.89
2017-11-18T13:06:01.689Z,6.96
2017-11-18T13:07:01.684Z,6.92
2017-11-18T13:08:01.677Z,6.85
2017-11-18T13:09:01.714Z,6.84
2017-11-18T13:10:01.666Z,6.84
2017-11-18T13:11:01.662Z,6.88
2017-11-18T13:12:01.656Z,6.92
2017-11-18T13:13:01.650Z,6.84
2017-11-18T13:14:01.643Z,6.82
2017-11-18T13:15:01.638Z,6.84
2017-11-18T13:16:01.633Z,6.88
2017-11-18T13:17:01.628Z,6.89
2017-11-18T13:18:01.621Z,6.87